sensor_id;sensor_type;location;lat;lon;timestamp;pressure;altitude;pressure_sealevel;temperature
64947;BMP280;51469;52.150;4.682;2023-11-21T00:01:47;101242.06;;;14.40
64947;BMP280;51469;52.150;4.682;2023-11-21T00:04:12;101251.16;;;14.51
64947;BMP280;51469;52.150;4.682;2023-11-21T00:06:38;101245.25;;;14.56
64947;BMP280;51469;52.150;4.682;2023-11-21T00:09:04;101248.00;;;14.63
64947;BMP280;51469;52.150;4.682;2023-11-21T00:11:30;101249.59;;;14.68
64947;BMP280;51469;52.150;4.682;2023-11-21T00:13:55;101265.78;;;14.80
64947;BMP280;51469;52.150;4.682;2023-11-21T00:16:20;101264.59;;;14.84
64947;BMP280;51469;52.150;4.682;2023-11-21T00:18:47;101263.78;;;14.94
64947;BMP280;51469;52.150;4.682;2023-11-21T00:21:12;101260.63;;;14.92
64947;BMP280;51469;52.150;4.682;2023-11-21T00:23:38;101266.16;;;15.06
64947;BMP280;51469;52.150;4.682;2023-11-21T00:26:03;101263.00;;;15.11
64947;BMP280;51469;52.150;4.682;2023-11-21T00:28:29;101247.19;;;15.08
64947;BMP280;51469;52.150;4.682;2023-11-21T00:30:55;101249.19;;;15.11
64947;BMP280;51469;52.150;4.682;2023-11-21T00:33:20;101246.38;;;15.18
64947;BMP280;51469;52.150;4.682;2023-11-21T00:35:46;101261.75;;;15.26
64947;BMP280;51469;52.150;4.682;2023-11-21T00:38:12;101259.41;;;15.35
64947;BMP280;51469;52.150;4.682;2023-11-21T00:40:37;101264.50;;;15.40
64947;BMP280;51469;52.150;4.682;2023-11-21T00:43:03;101254.19;;;15.44
64947;BMP280;51469;52.150;4.682;2023-11-21T00:45:28;101259.72;;;15.44
64947;BMP280;51469;52.150;4.682;2023-11-21T00:47:53;101266.84;;;15.52
64947;BMP280;51469;52.150;4.682;2023-11-21T00:50:19;101270.78;;;15.51
64947;BMP280;51469;52.150;4.682;2023-11-21T00:52:45;101268.81;;;15.48
64947;BMP280;51469;52.150;4.682;2023-11-21T00:55:10;101246.72;;;15.45
64947;BMP280;51469;52.150;4.682;2023-11-21T00:57:37;101258.16;;;15.50
64947;BMP280;51469;52.150;4.682;2023-11-21T01:00:02;101264.44;;;15.54
64947;BMP280;51469;52.150;4.682;2023-11-21T01:02:32;101280.63;;;15.59
64947;BMP280;51469;52.150;4.682;2023-11-21T01:04:58;101277.84;;;15.66
64947;BMP280;51469;52.150;4.682;2023-11-21T01:07:23;101277.84;;;15.73
64947;BMP280;51469;52.150;4.682;2023-11-21T01:09:49;101278.97;;;15.79
64947;BMP280;51469;52.150;4.682;2023-11-21T01:12:15;101290.44;;;15.81
64947;BMP280;51469;52.150;4.682;2023-11-21T01:14:42;101286.53;;;15.79
64947;BMP280;51469;52.150;4.682;2023-11-21T01:17:08;101291.25;;;15.78
64947;BMP280;51469;52.150;4.682;2023-11-21T01:19:33;101299.53;;;15.82
64947;BMP280;51469;52.150;4.682;2023-11-21T01:21:58;101298.34;;;15.83
64947;BMP280;51469;52.150;4.682;2023-11-21T01:24:23;101307.78;;;15.92
64947;BMP280;51469;52.150;4.682;2023-11-21T01:26:49;101313.28;;;15.99
64947;BMP280;51469;52.150;4.682;2023-11-21T01:29:15;101306.16;;;16.02
64947;BMP280;51469;52.150;4.682;2023-11-21T01:31:40;101310.09;;;16.04
64947;BMP280;51469;52.150;4.682;2023-11-21T01:34:06;101311.31;;;16.03
64947;BMP280;51469;52.150;4.682;2023-11-21T01:36:32;101314.06;;;16.03
64947;BMP280;51469;52.150;4.682;2023-11-21T01:38:58;101315.59;;;16.11
64947;BMP280;51469;52.150;4.682;2023-11-21T01:41:28;101318.78;;;16.13
64947;BMP280;51469;52.150;4.682;2023-11-21T01:43:56;101320.34;;;16.07
64947;BMP280;51469;52.150;4.682;2023-11-21T01:46:22;101318.38;;;16.11
64947;BMP280;51469;52.150;4.682;2023-11-21T01:48:48;101321.97;;;16.08
64947;BMP280;51469;52.150;4.682;2023-11-21T01:51:14;101329.78;;;16.17
64947;BMP280;51469;52.150;4.682;2023-11-21T01:53:40;101333.34;;;16.17
64947;BMP280;51469;52.150;4.682;2023-11-21T01:56:07;101334.13;;;16.21
64947;BMP280;51469;52.150;4.682;2023-11-21T01:58:33;101332.22;;;16.11
64947;BMP280;51469;52.150;4.682;2023-11-21T02:00:59;101341.72;;;16.10
64947;BMP280;51469;52.150;4.682;2023-11-21T02:03:24;101338.16;;;16.13
64947;BMP280;51469;52.150;4.682;2023-11-21T02:05:52;101345.25;;;16.07
64947;BMP280;51469;52.150;4.682;2023-11-21T02:08:18;101338.53;;;16.15
64947;BMP280;51469;52.150;4.682;2023-11-21T02:10:44;101338.09;;;16.17
64947;BMP280;51469;52.150;4.682;2023-11-21T02:13:10;101349.19;;;16.20
64947;BMP280;51469;52.150;4.682;2023-11-21T02:15:36;101340.88;;;16.20
64947;BMP280;51469;52.150;4.682;2023-11-21T02:18:03;101349.19;;;16.20
64947;BMP280;51469;52.150;4.682;2023-11-21T02:20:31;101350.41;;;16.16
64947;BMP280;51469;52.150;4.682;2023-11-21T02:22:57;101349.97;;;16.17
64947;BMP280;51469;52.150;4.682;2023-11-21T02:25:26;101344.84;;;16.19
64947;BMP280;51469;52.150;4.682;2023-11-21T02:27:55;101357.47;;;16.24
64947;BMP280;51469;52.150;4.682;2023-11-21T02:30:22;101355.88;;;16.23
64947;BMP280;51469;52.150;4.682;2023-11-21T02:32:48;101357.84;;;16.26
64947;BMP280;51469;52.150;4.682;2023-11-21T02:35:14;101359.00;;;16.28
64947;BMP280;51469;52.150;4.682;2023-11-21T02:37:41;101368.88;;;16.33
64947;BMP280;51469;52.150;4.682;2023-11-21T02:40:09;101357.41;;;16.34
64947;BMP280;51469;52.150;4.682;2023-11-21T02:42:35;101352.72;;;16.31
64947;BMP280;51469;52.150;4.682;2023-11-21T02:45:00;101368.06;;;16.39
64947;BMP280;51469;52.150;4.682;2023-11-21T02:47:25;101355.00;;;16.40
64947;BMP280;51469;52.150;4.682;2023-11-21T02:49:51;101360.50;;;16.43
64947;BMP280;51469;52.150;4.682;2023-11-21T02:52:17;101356.56;;;16.44
64947;BMP280;51469;52.150;4.682;2023-11-21T02:54:42;101356.56;;;16.44
64947;BMP280;51469;52.150;4.682;2023-11-21T02:57:08;101356.59;;;16.37
64947;BMP280;51469;52.150;4.682;2023-11-21T02:59:33;101357.31;;;16.48
64947;BMP280;51469;52.150;4.682;2023-11-21T03:02:00;101348.28;;;16.41
64947;BMP280;51469;52.150;4.682;2023-11-21T03:04:25;101357.03;;;16.36
64947;BMP280;51469;52.150;4.682;2023-11-21T03:06:51;101355.00;;;16.40
64947;BMP280;51469;52.150;4.682;2023-11-21T03:09:16;101367.66;;;16.44
64947;BMP280;51469;52.150;4.682;2023-11-21T03:11:42;101368.81;;;16.43
64947;BMP280;51469;52.150;4.682;2023-11-21T03:14:07;101371.59;;;16.43
64947;BMP280;51469;52.150;4.682;2023-11-21T03:16:33;101362.13;;;16.41
64947;BMP280;51469;52.150;4.682;2023-11-21T03:18:58;101367.28;;;16.35
64947;BMP280;51469;52.150;4.682;2023-11-21T03:21:24;101367.66;;;16.37
64947;BMP280;51469;52.150;4.682;2023-11-21T03:23:50;101370.84;;;16.39
64947;BMP280;51469;52.150;4.682;2023-11-21T03:26:15;101377.16;;;16.40
64947;BMP280;51469;52.150;4.682;2023-11-21T03:28:41;101369.25;;;16.38
64947;BMP280;51469;52.150;4.682;2023-11-21T03:31:07;101381.13;;;16.39
64947;BMP280;51469;52.150;4.682;2023-11-21T03:33:34;101382.69;;;16.40
64947;BMP280;51469;52.150;4.682;2023-11-21T03:36:00;101377.94;;;16.40
64947;BMP280;51469;52.150;4.682;2023-11-21T03:38:25;101383.50;;;16.37
64947;BMP280;51469;52.150;4.682;2023-11-21T03:40:51;101396.16;;;16.41
64947;BMP280;51469;52.150;4.682;2023-11-21T03:43:16;101398.56;;;16.32
64947;BMP280;51469;52.150;4.682;2023-11-21T03:45:41;101409.25;;;16.30
64947;BMP280;51469;52.150;4.682;2023-11-21T03:48:07;101403.25;;;16.42
64947;BMP280;51469;52.150;4.682;2023-11-21T03:50:34;101397.28;;;16.47
64947;BMP280;51469;52.150;4.682;2023-11-21T03:52:59;101406.38;;;16.51
64947;BMP280;51469;52.150;4.682;2023-11-21T03:55:24;101406.38;;;16.51
64947;BMP280;51469;52.150;4.682;2023-11-21T03:57:50;101418.22;;;16.55
64947;BMP280;51469;52.150;4.682;2023-11-21T04:00:17;101408.72;;;16.56
64947;BMP280;51469;52.150;4.682;2023-11-21T04:02:42;101425.34;;;16.56
64947;BMP280;51469;52.150;4.682;2023-11-21T04:05:08;101413.47;;;16.52
64947;BMP280;51469;52.150;4.682;2023-11-21T04:07:34;101425.34;;;16.56
64947;BMP280;51469;52.150;4.682;2023-11-21T04:10:00;101422.94;;;16.58
64947;BMP280;51469;52.150;4.682;2023-11-21T04:12:25;101435.63;;;16.59
64947;BMP280;51469;52.150;4.682;2023-11-21T04:14:51;101445.88;;;16.66
64947;BMP280;51469;52.150;4.682;2023-11-21T04:17:19;101444.25;;;16.68
64947;BMP280;51469;52.150;4.682;2023-11-21T04:19:45;101439.53;;;16.69
64947;BMP280;51469;52.150;4.682;2023-11-21T04:22:11;101450.22;;;16.70
64947;BMP280;51469;52.150;4.682;2023-11-21T04:24:36;101452.16;;;16.77
64947;BMP280;51469;52.150;4.682;2023-11-21T04:27:02;101461.63;;;16.79
64947;BMP280;51469;52.150;4.682;2023-11-21T04:29:28;101466.41;;;16.82
64947;BMP280;51469;52.150;4.682;2023-11-21T04:31:53;101469.91;;;16.86
64947;BMP280;51469;52.150;4.682;2023-11-21T04:34:19;101469.47;;;16.88
64947;BMP280;51469;52.150;4.682;2023-11-21T04:36:44;101476.63;;;16.89
64947;BMP280;51469;52.150;4.682;2023-11-21T04:39:09;101476.63;;;16.92
64947;BMP280;51469;52.150;4.682;2023-11-21T04:41:35;101465.53;;;16.92
64947;BMP280;51469;52.150;4.682;2023-11-21T04:44:01;101476.63;;;16.89
64947;BMP280;51469;52.150;4.682;2023-11-21T04:46:27;101482.19;;;16.85
64947;BMP280;51469;52.150;4.682;2023-11-21T04:48:52;101488.56;;;16.82
64947;BMP280;51469;52.150;4.682;2023-11-21T04:51:17;101474.72;;;16.82
64947;BMP280;51469;52.150;4.682;2023-11-21T04:53:43;101475.47;;;16.79
64947;BMP280;51469;52.150;4.682;2023-11-21T04:56:08;101479.06;;;16.76
64947;BMP280;51469;52.150;4.682;2023-11-21T04:58:34;101483.84;;;16.72
64947;BMP280;51469;52.150;4.682;2023-11-21T05:01:00;101485.03;;;16.67
64947;BMP280;51469;52.150;4.682;2023-11-21T05:03:25;101487.06;;;16.60
64947;BMP280;51469;52.150;4.682;2023-11-21T05:05:51;101491.03;;;16.52
64947;BMP280;51469;52.150;4.682;2023-11-21T05:08:16;101498.22;;;16.46
64947;BMP280;51469;52.150;4.682;2023-11-21T05:10:42;101497.81;;;16.37
64947;BMP280;51469;52.150;4.682;2023-11-21T05:13:07;101503.78;;;16.32
64947;BMP280;51469;52.150;4.682;2023-11-21T05:15:36;101509.34;;;16.25
64947;BMP280;51469;52.150;4.682;2023-11-21T05:18:01;101513.25;;;16.35
64947;BMP280;51469;52.150;4.682;2023-11-21T05:20:27;101515.66;;;16.36
64947;BMP280;51469;52.150;4.682;2023-11-21T05:22:52;101518.78;;;16.38
64947;BMP280;51469;52.150;4.682;2023-11-21T05:25:17;101526.69;;;16.43
64947;BMP280;51469;52.150;4.682;2023-11-21T05:27:46;101521.16;;;16.43
64947;BMP280;51469;52.150;4.682;2023-11-21T05:30:13;101524.28;;;16.52
64947;BMP280;51469;52.150;4.682;2023-11-21T05:32:39;101533.34;;;16.63
64947;BMP280;51469;52.150;4.682;2023-11-21T05:35:05;101541.66;;;16.70
64947;BMP280;51469;52.150;4.682;2023-11-21T05:37:35;101531.28;;;16.77
64947;BMP280;51469;52.150;4.682;2023-11-21T05:40:01;101534.47;;;16.80
64947;BMP280;51469;52.150;4.682;2023-11-21T05:42:30;101544.72;;;16.83
64947;BMP280;51469;52.150;4.682;2023-11-21T05:44:56;101547.88;;;16.95
64947;BMP280;51469;52.150;4.682;2023-11-21T05:47:24;101548.69;;;16.89
64947;BMP280;51469;52.150;4.682;2023-11-21T05:49:51;101548.66;;;16.96
64947;BMP280;51469;52.150;4.682;2023-11-21T05:52:17;101554.25;;;16.92
64947;BMP280;51469;52.150;4.682;2023-11-21T05:54:42;101559.78;;;16.92
64947;BMP280;51469;52.150;4.682;2023-11-21T05:57:08;101564.41;;;17.09
64947;BMP280;51469;52.150;4.682;2023-11-21T05:59:34;101568.38;;;17.08
64947;BMP280;51469;52.150;4.682;2023-11-21T06:01:59;101565.34;;;16.85
64947;BMP280;51469;52.150;4.682;2023-11-21T06:04:24;101574.06;;;16.80
64947;BMP280;51469;52.150;4.682;2023-11-21T06:06:51;101556.69;;;16.69
64947;BMP280;51469;52.150;4.682;2023-11-21T06:09:17;101584.34;;;16.90
64947;BMP280;51469;52.150;4.682;2023-11-21T06:11:42;101572.47;;;16.86
64947;BMP280;51469;52.150;4.682;2023-11-21T06:14:08;101579.94;;;16.92
64947;BMP280;51469;52.150;4.682;2023-11-21T06:16:34;101590.28;;;16.92
64947;BMP280;51469;52.150;4.682;2023-11-21T06:19:00;101584.34;;;16.90
64947;BMP280;51469;52.150;4.682;2023-11-21T06:21:26;101589.88;;;16.83
64947;BMP280;51469;52.150;4.682;2023-11-21T06:23:51;101594.28;;;16.77
64947;BMP280;51469;52.150;4.682;2023-11-21T06:26:18;101590.75;;;16.66
64947;BMP280;51469;52.150;4.682;2023-11-21T06:28:43;101595.91;;;16.64
64947;BMP280;51469;52.150;4.682;2023-11-21T06:31:09;101606.19;;;16.60
64947;BMP280;51469;52.150;4.682;2023-11-21T06:33:36;101613.34;;;16.58
64947;BMP280;51469;52.150;4.682;2023-11-21T06:36:01;101612.13;;;16.62
64947;BMP280;51469;52.150;4.682;2023-11-21T06:38:29;101612.53;;;16.64
64947;BMP280;51469;52.150;4.682;2023-11-21T06:40:56;101623.97;;;16.70
64947;BMP280;51469;52.150;4.682;2023-11-21T06:43:23;101621.59;;;16.68
64947;BMP280;51469;52.150;4.682;2023-11-21T06:45:48;101618.47;;;16.59
64947;BMP280;51469;52.150;4.682;2023-11-21T06:48:14;101639.06;;;16.62
64947;BMP280;51469;52.150;4.682;2023-11-21T06:50:40;101637.81;;;16.73
64947;BMP280;51469;52.150;4.682;2023-11-21T06:53:05;101642.97;;;16.71
64947;BMP280;51469;52.150;4.682;2023-11-21T06:55:32;101649.31;;;16.68
64947;BMP280;51469;52.150;4.682;2023-11-21T06:57:58;101651.69;;;16.66
64947;BMP280;51469;52.150;4.682;2023-11-21T07:00:25;101652.44;;;16.91
64947;BMP280;51469;52.150;4.682;2023-11-21T07:02:50;101656.38;;;16.97
64947;BMP280;51469;52.150;4.682;2023-11-21T07:05:16;101663.56;;;16.63
64947;BMP280;51469;52.150;4.682;2023-11-21T07:07:45;101664.78;;;16.55
64947;BMP280;51469;52.150;4.682;2023-11-21T07:10:11;101670.31;;;16.66
64947;BMP280;51469;52.150;4.682;2023-11-21T07:12:36;101666.69;;;16.79
64947;BMP280;51469;52.150;4.682;2023-11-21T07:15:03;101669.50;;;16.72
64947;BMP280;51469;52.150;4.682;2023-11-21T07:17:30;101671.47;;;16.82
64947;BMP280;51469;52.150;4.682;2023-11-21T07:19:56;101673.00;;;16.97
64947;BMP280;51469;52.150;4.682;2023-11-21T07:22:22;101682.59;;;16.72
64947;BMP280;51469;52.150;4.682;2023-11-21T07:24:50;101684.94;;;16.80
64947;BMP280;51469;52.150;4.682;2023-11-21T07:27:16;101691.69;;;16.76
64947;BMP280;51469;52.150;4.682;2023-11-21T07:29:41;101697.56;;;16.77
64947;BMP280;51469;52.150;4.682;2023-11-21T07:32:06;101699.94;;;16.83
64947;BMP280;51469;52.150;4.682;2023-11-21T07:34:34;101703.91;;;16.89
64947;BMP280;51469;52.150;4.682;2023-11-21T07:36:59;101696.78;;;16.84
64947;BMP280;51469;52.150;4.682;2023-11-21T07:39:25;101705.16;;;16.56
64947;BMP280;51469;52.150;4.682;2023-11-21T07:41:50;101711.88;;;16.62
64947;BMP280;51469;52.150;4.682;2023-11-21T07:44:18;101708.69;;;16.67
64947;BMP280;51469;52.150;4.682;2023-11-21T07:46:45;101711.84;;;16.90
64947;BMP280;51469;52.150;4.682;2023-11-21T07:49:11;101721.38;;;16.86
64947;BMP280;51469;52.150;4.682;2023-11-21T07:51:36;101716.56;;;16.83
64947;BMP280;51469;52.150;4.682;2023-11-21T07:54:01;101720.16;;;16.83
64947;BMP280;51469;52.150;4.682;2023-11-21T07:56:26;101716.59;;;16.86
64947;BMP280;51469;52.150;4.682;2023-11-21T07:58:52;101732.44;;;16.33
64947;BMP280;51469;52.150;4.682;2023-11-21T08:01:18;101736.03;;;16.65
64947;BMP280;51469;52.150;4.682;2023-11-21T08:03:43;101734.00;;;16.90
64947;BMP280;51469;52.150;4.682;2023-11-21T08:06:09;101736.38;;;16.88
64947;BMP280;51469;52.150;4.682;2023-11-21T08:08:34;101748.28;;;16.92
64947;BMP280;51469;52.150;4.682;2023-11-21T08:11:00;101745.84;;;16.98
64947;BMP280;51469;52.150;4.682;2023-11-21T08:13:28;101749.09;;;16.82
64947;BMP280;51469;52.150;4.682;2023-11-21T08:15:57;101760.94;;;17.00
64947;BMP280;51469;52.150;4.682;2023-11-21T08:18:27;101771.22;;;16.96
64947;BMP280;51469;52.150;4.682;2023-11-21T08:20:52;101772.41;;;16.99
64947;BMP280;51469;52.150;4.682;2023-11-21T08:23:20;101784.28;;;16.99
64947;BMP280;51469;52.150;4.682;2023-11-21T08:25:50;101772.81;;;16.97
64947;BMP280;51469;52.150;4.682;2023-11-21T08:28:16;101774.78;;;16.79
64947;BMP280;51469;52.150;4.682;2023-11-21T08:30:41;101785.47;;;17.05
64947;BMP280;51469;52.150;4.682;2023-11-21T08:33:07;101784.69;;;16.94
64947;BMP280;51469;52.150;4.682;2023-11-21T08:35:33;101777.94;;;17.02
64947;BMP280;51469;52.150;4.682;2023-11-21T08:37:59;101791.81;;;16.67
64947;BMP280;51469;52.150;4.682;2023-11-21T08:40:25;101783.09;;;16.93
64947;BMP280;51469;52.150;4.682;2023-11-21T08:42:50;101785.88;;;17.00
64947;BMP280;51469;52.150;4.682;2023-11-21T08:45:18;101786.69;;;16.62
64947;BMP280;51469;52.150;4.682;2023-11-21T08:47:43;101783.09;;;16.30
64947;BMP280;51469;52.150;4.682;2023-11-21T08:50:09;101789.88;;;16.92
64947;BMP280;51469;52.150;4.682;2023-11-21T08:52:37;101779.53;;;17.07
64947;BMP280;51469;52.150;4.682;2023-11-21T08:55:03;101793.34;;;17.17
64947;BMP280;51469;52.150;4.682;2023-11-21T08:57:36;101795.34;;;17.20
64947;BMP280;51469;52.150;4.682;2023-11-21T09:00:03;101802.06;;;17.30
64947;BMP280;51469;52.150;4.682;2023-11-21T09:02:32;101800.44;;;17.32
64947;BMP280;51469;52.150;4.682;2023-11-21T09:04:59;101820.25;;;17.48
64947;BMP280;51469;52.150;4.682;2023-11-21T09:07:24;101821.81;;;17.52
64947;BMP280;51469;52.150;4.682;2023-11-21T09:09:50;101823.44;;;17.43
64947;BMP280;51469;52.150;4.682;2023-11-21T09:12:16;101836.97;;;17.20
64947;BMP280;51469;52.150;4.682;2023-11-21T09:14:42;101818.75;;;17.02
64947;BMP280;51469;52.150;4.682;2023-11-21T09:17:09;101845.63;;;17.29
64947;BMP280;51469;52.150;4.682;2023-11-21T09:19:39;101854.41;;;17.10
64947;BMP280;51469;52.150;4.682;2023-11-21T09:22:04;101848.03;;;17.02
64947;BMP280;51469;52.150;4.682;2023-11-21T09:24:33;101857.19;;;16.86
64947;BMP280;51469;52.150;4.682;2023-11-21T09:26:59;101856.78;;;16.77
64947;BMP280;51469;52.150;4.682;2023-11-21T09:29:26;101862.28;;;17.22
64947;BMP280;51469;52.150;4.682;2023-11-21T09:31:51;101863.13;;;16.81
64947;BMP280;51469;52.150;4.682;2023-11-21T09:34:16;101871.03;;;17.03
64947;BMP280;51469;52.150;4.682;2023-11-21T09:36:45;101886.84;;;16.64
64947;BMP280;51469;52.150;4.682;2023-11-21T09:39:10;101894.00;;;16.90
64947;BMP280;51469;52.150;4.682;2023-11-21T09:41:50;101898.75;;;17.00
64947;BMP280;51469;52.150;4.682;2023-11-21T09:44:23;101901.13;;;17.08
64947;BMP280;51469;52.150;4.682;2023-11-21T09:46:51;101905.09;;;17.28
64947;BMP280;51469;52.150;4.682;2023-11-21T09:49:22;101914.59;;;17.10
64947;BMP280;51469;52.150;4.682;2023-11-21T09:51:52;101918.53;;;16.84
64947;BMP280;51469;52.150;4.682;2023-11-21T09:54:20;101915.34;;;16.68
64947;BMP280;51469;52.150;4.682;2023-11-21T09:56:46;101924.47;;;16.83
64947;BMP280;51469;52.150;4.682;2023-11-21T09:59:14;101932.38;;;16.70
64947;BMP280;51469;52.150;4.682;2023-11-21T10:01:41;101944.66;;;16.76
64947;BMP280;51469;52.150;4.682;2023-11-21T10:04:10;101945.47;;;16.98
64947;BMP280;51469;52.150;4.682;2023-11-21T10:06:41;101945.84;;;16.89
64947;BMP280;51469;52.150;4.682;2023-11-21T10:09:09;101957.41;;;17.05
64947;BMP280;51469;52.150;4.682;2023-11-21T10:11:42;101962.06;;;16.73
64947;BMP280;51469;52.150;4.682;2023-11-21T10:14:10;101961.31;;;17.08
64947;BMP280;51469;52.150;4.682;2023-11-21T10:16:38;101957.00;;;17.10
64947;BMP280;51469;52.150;4.682;2023-11-21T10:19:04;101962.09;;;16.87
64947;BMP280;51469;52.150;4.682;2023-11-21T10:21:32;101965.31;;;17.21
64947;BMP280;51469;52.150;4.682;2023-11-21T10:23:58;101968.50;;;17.26
64947;BMP280;51469;52.150;4.682;2023-11-21T10:26:26;101969.22;;;16.88
64947;BMP280;51469;52.150;4.682;2023-11-21T10:28:56;101974.00;;;17.12
64947;BMP280;51469;52.150;4.682;2023-11-21T10:31:22;101986.59;;;16.61
64947;BMP280;51469;52.150;4.682;2023-11-21T10:33:49;101985.91;;;17.06
64947;BMP280;51469;52.150;4.682;2023-11-21T10:36:25;102004.88;;;16.86
64947;BMP280;51469;52.150;4.682;2023-11-21T10:38:50;102004.38;;;16.56
64947;BMP280;51469;52.150;4.682;2023-11-21T10:41:18;102003.34;;;16.92
64947;BMP280;51469;52.150;4.682;2023-11-21T10:43:43;101998.53;;;16.89
64947;BMP280;51469;52.150;4.682;2023-11-21T10:46:09;102008.88;;;16.92
64947;BMP280;51469;52.150;4.682;2023-11-21T10:48:35;102012.00;;;16.91
64947;BMP280;51469;52.150;4.682;2023-11-21T10:51:06;102006.53;;;17.29
64947;BMP280;51469;52.150;4.682;2023-11-21T10:53:32;102019.56;;;16.97
64947;BMP280;51469;52.150;4.682;2023-11-21T10:56:05;102022.31;;;16.97
64947;BMP280;51469;52.150;4.682;2023-11-21T10:58:32;102012.03;;;17.08
64947;BMP280;51469;52.150;4.682;2023-11-21T11:00:59;102011.25;;;17.08
64947;BMP280;51469;52.150;4.682;2023-11-21T11:03:25;102021.59;;;17.28
64947;BMP280;51469;52.150;4.682;2023-11-21T11:05:52;102021.16;;;17.05
64947;BMP280;51469;52.150;4.682;2023-11-21T11:08:21;102021.19;;;17.40
64947;BMP280;51469;52.150;4.682;2023-11-21T11:10:51;102025.56;;;17.20
64947;BMP280;51469;52.150;4.682;2023-11-21T11:13:18;102031.91;;;17.31
64947;BMP280;51469;52.150;4.682;2023-11-21T11:15:47;102027.16;;;17.49
64947;BMP280;51469;52.150;4.682;2023-11-21T11:18:12;102021.16;;;17.05
64947;BMP280;51469;52.150;4.682;2023-11-21T11:20:40;102024.75;;;17.16
64947;BMP280;51469;52.150;4.682;2023-11-21T11:31:55;102036.56;;;16.85
64947;BMP280;51469;52.150;4.682;2023-11-21T11:34:24;102033.78;;;16.85
64947;BMP280;51469;52.150;4.682;2023-11-21T11:37:01;102040.13;;;16.89
64947;BMP280;51469;52.150;4.682;2023-11-21T11:39:34;102031.91;;;17.38
64947;BMP280;51469;52.150;4.682;2023-11-21T11:42:03;102041.69;;;16.83
64947;BMP280;51469;52.150;4.682;2023-11-21T11:47:23;102039.72;;;16.94
64947;BMP280;51469;52.150;4.682;2023-11-21T11:52:55;102048.19;;;16.26
64947;BMP280;51469;52.150;4.682;2023-11-21T11:55:36;102053.13;;;16.64
64947;BMP280;51469;52.150;4.682;2023-11-21T11:58:05;102062.66;;;16.74
64947;BMP280;51469;52.150;4.682;2023-11-21T12:00:34;102060.75;;;16.13
64947;BMP280;51469;52.150;4.682;2023-11-21T12:03:03;102064.78;;;16.33
64947;BMP280;51469;52.150;4.682;2023-11-21T12:05:31;102064.84;;;16.40
64947;BMP280;51469;52.150;4.682;2023-11-21T12:08:10;102067.28;;;16.49
64947;BMP280;51469;52.150;4.682;2023-11-21T12:10:38;102077.50;;;16.34
64947;BMP280;51469;52.150;4.682;2023-11-21T12:13:09;102077.25;;;16.67
64947;BMP280;51469;52.150;4.682;2023-11-21T12:15:36;102067.19;;;16.38
64947;BMP280;51469;52.150;4.682;2023-11-21T12:18:02;102072.22;;;16.90
64947;BMP280;51469;52.150;4.682;2023-11-21T12:20:30;102087.28;;;16.96
64947;BMP280;51469;52.150;4.682;2023-11-21T12:22:57;102086.44;;;16.82
64947;BMP280;51469;52.150;4.682;2023-11-21T12:25:27;102084.94;;;17.02
64947;BMP280;51469;52.150;4.682;2023-11-21T12:28:01;102085.72;;;17.09
64947;BMP280;51469;52.150;4.682;2023-11-21T12:30:29;102084.91;;;16.98
64947;BMP280;51469;52.150;4.682;2023-11-21T12:33:01;102083.41;;;17.32
64947;BMP280;51469;52.150;4.682;2023-11-21T12:35:28;102096.06;;;17.19
64947;BMP280;51469;52.150;4.682;2023-11-21T12:37:55;102092.56;;;17.43
64947;BMP280;51469;52.150;4.682;2023-11-21T12:40:24;102108.53;;;16.64
64947;BMP280;51469;52.150;4.682;2023-11-21T12:42:54;102113.38;;;16.88
64947;BMP280;51469;52.150;4.682;2023-11-21T12:45:25;102104.81;;;17.28
64947;BMP280;51469;52.150;4.682;2023-11-21T12:48:04;102099.97;;;17.08
64947;BMP280;51469;52.150;4.682;2023-11-21T12:50:34;102119.75;;;16.99
64947;BMP280;51469;52.150;4.682;2023-11-21T12:53:09;102122.88;;;16.80
64947;BMP280;51469;52.150;4.682;2023-11-21T12:55:35;102126.53;;;17.05
64947;BMP280;51469;52.150;4.682;2023-11-21T12:58:06;102119.78;;;17.02
64947;BMP280;51469;52.150;4.682;2023-11-21T13:00:36;102118.94;;;16.88
64947;BMP280;51469;52.150;4.682;2023-11-21T13:03:04;102130.94;;;17.27
64947;BMP280;51469;52.150;4.682;2023-11-21T13:05:33;102131.44;;;16.54
64947;BMP280;51469;52.150;4.682;2023-11-21T13:08:02;102127.41;;;16.41
64947;BMP280;51469;52.150;4.682;2023-11-21T13:10:30;102137.78;;;16.58
64947;BMP280;51469;52.150;4.682;2023-11-21T13:12:57;102146.63;;;16.81
64947;BMP280;51469;52.150;4.682;2023-11-21T13:15:32;102143.16;;;17.12
64947;BMP280;51469;52.150;4.682;2023-11-21T13:17:58;102141.16;;;16.95
64947;BMP280;51469;52.150;4.682;2023-11-21T13:20:26;102148.28;;;17.00
64947;BMP280;51469;52.150;4.682;2023-11-21T13:22:54;102152.94;;;16.78
64947;BMP280;51469;52.150;4.682;2023-11-21T13:25:23;102152.28;;;17.06
64947;BMP280;51469;52.150;4.682;2023-11-21T13:27:49;102154.41;;;16.58
64947;BMP280;51469;52.150;4.682;2023-11-21T13:30:15;102150.41;;;16.52
64947;BMP280;51469;52.150;4.682;2023-11-21T13:32:44;102161.72;;;16.26
64947;BMP280;51469;52.150;4.682;2023-11-21T13:35:16;102158.34;;;16.57
64947;BMP280;51469;52.150;4.682;2023-11-21T13:37:56;102168.00;;;16.77
64947;BMP280;51469;52.150;4.682;2023-11-21T13:40:24;102165.66;;;16.86
64947;BMP280;51469;52.150;4.682;2023-11-21T13:42:54;102168.97;;;16.48
64947;BMP280;51469;52.150;4.682;2023-11-21T13:45:23;102174.28;;;16.74
64947;BMP280;51469;52.150;4.682;2023-11-21T13:47:53;102178.00;;;16.38
64947;BMP280;51469;52.150;4.682;2023-11-21T13:50:25;102181.03;;;16.19
64947;BMP280;51469;52.150;4.682;2023-11-21T13:52:58;102189.44;;;15.86
64947;BMP280;51469;52.150;4.682;2023-11-21T13:55:26;102189.00;;;16.24
64947;BMP280;51469;52.150;4.682;2023-11-21T13:57:52;102192.03;;;16.12
64947;BMP280;51469;52.150;4.682;2023-11-21T14:00:18;102197.06;;;15.63
64947;BMP280;51469;52.150;4.682;2023-11-21T14:03:10;102204.28;;;15.38
64947;BMP280;51469;52.150;4.682;2023-11-21T14:05:43;102212.59;;;15.71
64947;BMP280;51469;52.150;4.682;2023-11-21T14:08:09;102222.81;;;15.67
64947;BMP280;51469;52.150;4.682;2023-11-21T14:10:37;102213.31;;;16.01